John H Macmillan Jr — WDB9907 — position and weather

sailwx.info

Track history (hours):
 
Tides and Currents Weather Stations Pressure Air Temp Water Temp Dewpoint Dewpoint Depression Visibility Wind Speed Wind Dir Waves Ship Positions

John H Macmillan Jr

Owner: American River Transportation Company, St Louis, MO. More information available from US FCC via Universal Licensing System and Coast Guard Vessel Documentation Center.

Last reported at 2015-Mar-01 22:21 UTC. Time now 2015-Mar-01 23:29 UTC.
Position N 29°51' W 090°04'.

; draft 9 m.

Type: Towing. MMSI: 366984920.

Date/timePositionNaut miles runAvg speedWind from/ knotsBaromVisibWave heightAir tempDewpointWater temp
2015-Mar-01 22:21N 29°51' W 090°04'0 0.0
2015-Mar-01 06:20N 29°51' W 090°04'0 0.0
2015-Mar-01 05:04N 29°51' W 090°04'0 0.0
2015-Mar-01 04:22N 29°51' W 090°04'0 0.0
2015-Mar-01 03:29N 29°51' W 090°04'0 0.0
2015-Mar-01 02:23N 29°51' W 090°04'0 0.0
2015-Mar-01 01:28N 29°51' W 090°04'0 0.0
2015-Mar-01 00:33N 29°51' W 090°04'0 0.0
2015-Feb-28 19:33N 29°51' W 090°04'0 0.4
2015-Feb-28 18:22N 29°52' W 090°04'3 3.2
2015-Feb-28 17:28N 29°55' W 090°05'4 3.8
2015-Feb-28 16:18N 29°57' W 090°09'4 0.2
2015-Feb-27 21:14N 29°56' W 090°13'0 0.0
2015-Feb-27 19:32N 29°56' W 090°13'39 4.3
2015-Feb-27 10:26N 30°08' W 090°56'  
Track history (hours):
 
Tides and Currents Weather Stations Pressure Air Temp Water Temp Dewpoint Dewpoint Depression Visibility Wind Speed Wind Dir Waves Ship Positions

John H Macmillan Jr

Owner: American River Transportation Company, St Louis, MO. More information available from US FCC via Universal Licensing System and Coast Guard Vessel Documentation Center.

Last reported at 2015-Mar-01 22:21 UTC. Time now 2015-Mar-01 23:29 UTC.
Position N 29°51' W 090°04'.

; draft 9 m.

Type: Towing. MMSI: 366984920.

Date/timePositionNaut miles runAvg speedWind from/ knotsBaromVisibWave heightAir tempDewpointWater temp
2015-Mar-01 22:21N 29°51' W 090°04'0 0.0
2015-Mar-01 06:20N 29°51' W 090°04'0 0.0
2015-Mar-01 05:04N 29°51' W 090°04'0 0.0
2015-Mar-01 04:22N 29°51' W 090°04'0 0.0
2015-Mar-01 03:29N 29°51' W 090°04'0 0.0
2015-Mar-01 02:23N 29°51' W 090°04'0 0.0
2015-Mar-01 01:28N 29°51' W 090°04'0 0.0
2015-Mar-01 00:33N 29°51' W 090°04'0 0.0
2015-Feb-28 19:33N 29°51' W 090°04'0 0.4
2015-Feb-28 18:22N 29°52' W 090°04'3 3.2
2015-Feb-28 17:28N 29°55' W 090°05'4 3.8
2015-Feb-28 16:18N 29°57' W 090°09'4 0.2
2015-Feb-27 21:14N 29°56' W 090°13'0 0.0
2015-Feb-27 19:32N 29°56' W 090°13'39 4.3
2015-Feb-27 10:26N 30°08' W 090°56'  

Dump ship's entire track history